Time;durP1;ratioP1;P1;durP2;ratioP2;P2;SDS_P1;SDS_P2;PMS_P1;PMS_P2;Temp;Humidity;BMP_temperature;BMP_pressure;BME280_temperature;BME280_humidity;BME280_pressure;Samples;Min_cycle;Max_cycle;Signal;HPM_P1;HPM_P2
2023/09/26 00:00:22;;;;;;;9.50;4.10;;;15.80;99.90;;;;;;5002902;28;82371;-71
2023/09/26 00:02:49;;;;;;;12.73;5.20;;;15.80;99.90;;;;;;5038783;28;20060;-71
2023/09/26 00:05:15;;;;;;;13.18;5.70;;;15.80;99.90;;;;;;5065359;28;52343;-71
2023/09/26 00:07:42;;;;;;;12.23;5.82;;;15.70;99.90;;;;;;5018754;28;20454;-70
2023/09/26 00:10:10;;;;;;;12.35;5.50;;;15.70;99.90;;;;;;5044106;28;121335;-71
2023/09/26 00:12:37;;;;;;;13.15;5.82;;;15.70;99.90;;;;;;5054191;28;20060;-71
2023/09/26 00:15:04;;;;;;;11.07;4.35;;;15.70;99.90;;;;;;5020865;28;128149;-71
2023/09/26 00:17:30;;;;;;;11.95;4.90;;;15.70;99.90;;;;;;5047890;28;20071;-71
2023/09/26 00:19:57;;;;;;;9.35;4.43;;;15.70;99.90;;;;;;5024828;28;207797;-70
2023/09/26 00:22:24;;;;;;;11.13;5.60;;;15.70;99.90;;;;;;5058141;28;20060;-70
2023/09/26 00:24:51;;;;;;;9.43;4.75;;;15.70;99.90;;;;;;5009069;28;219628;-71
2023/09/26 00:27:18;;;;;;;13.02;6.20;;;15.70;99.90;;;;;;5062037;28;20043;-70
2023/09/26 00:29:44;;;;;;;10.60;5.63;;;15.70;99.90;;;;;;5017288;28;199712;-70
2023/09/26 00:32:11;;;;;;;11.90;5.28;;;15.70;99.90;;;;;;5059049;28;20059;-71
2023/09/26 00:34:38;;;;;;;13.60;5.30;;;15.70;99.90;;;;;;4999447;28;95455;-71
2023/09/26 00:37:04;;;;;;;10.95;5.25;;;15.70;99.90;;;;;;5056808;28;20052;-71
2023/09/26 00:39:30;;;;;;;9.85;4.65;;;15.70;99.90;;;;;;5016012;28;91563;-71
2023/09/26 00:41:56;;;;;;;11.27;4.43;;;15.70;99.90;;;;;;5058963;28;20674;-70
2023/09/26 00:44:23;;;;;;;12.07;5.05;;;15.70;99.90;;;;;;4999229;28;223502;-71
2023/09/26 00:46:49;;;;;;;13.38;5.68;;;15.70;99.90;;;;;;5057424;28;20546;-71
2023/09/26 00:49:15;;;;;;;9.75;4.50;;;15.70;99.90;;;;;;5014450;28;150260;-70
2023/09/26 00:51:41;;;;;;;11.48;4.78;;;15.70;99.90;;;;;;5057327;28;20056;-71
2023/09/26 00:54:09;;;;;;;12.52;4.93;;;15.70;99.90;;;;;;5010856;28;128067;-71
2023/09/26 00:56:38;;;;;;;13.23;4.93;;;15.70;99.90;;;;;;5061814;28;20063;-71
2023/09/26 00:59:05;;;;;;;10.30;4.68;;;15.60;99.90;;;;;;5023032;28;37332;-70
2023/09/26 01:01:34;;;;;;;10.88;5.18;;;15.60;99.90;;;;;;5064363;28;20794;-71
2023/09/26 01:04:01;;;;;;;11.25;5.15;;;15.50;99.90;;;;;;4994780;28;243398;-70
2023/09/26 01:06:27;;;;;;;12.20;5.10;;;15.50;99.90;;;;;;5051928;28;20071;-71
2023/09/26 01:08:53;;;;;;;11.80;5.63;;;15.50;99.90;;;;;;5020743;28;167109;-71
2023/09/26 01:11:20;;;;;;;11.13;5.07;;;15.50;99.90;;;;;;5063199;28;20644;-72
2023/09/26 01:13:46;;;;;;;10.55;5.05;;;15.40;99.90;;;;;;5010559;28;197664;-70
2023/09/26 01:16:17;;;;;;;11.18;5.32;;;15.40;99.90;;;;;;5062974;28;20055;-71
2023/09/26 01:18:45;;;;;;;12.75;5.00;;;15.30;99.90;;;;;;5021793;28;146052;-71
2023/09/26 01:21:11;;;;;;;12.05;5.45;;;15.30;99.90;;;;;;5052826;28;20056;-71
2023/09/26 01:23:41;;;;;;;11.23;6.40;;;15.30;99.90;;;;;;5023537;28;89175;-71
2023/09/26 01:26:07;;;;;;;11.73;5.90;;;15.20;99.90;;;;;;5068372;28;20057;-71
2023/09/26 01:28:34;;;;;;;13.38;5.90;;;15.10;99.90;;;;;;5014071;28;160202;-71
2023/09/26 01:31:01;;;;;;;10.07;5.57;;;15.10;99.90;;;;;;5061317;28;20052;-71
2023/09/26 01:33:27;;;;;;;11.52;5.65;;;15.00;99.90;;;;;;5007764;28;198427;-70
2023/09/26 01:35:53;;;;;;;17.10;7.03;;;15.00;99.90;;;;;;5057482;28;20053;-71
2023/09/26 01:38:21;;;;;;;12.10;5.85;;;14.90;99.90;;;;;;5014214;28;165088;-72
2023/09/26 01:40:47;;;;;;;11.82;6.00;;;14.90;99.90;;;;;;5068626;28;20056;-71
2023/09/26 01:43:13;;;;;;;10.13;5.68;;;14.90;99.90;;;;;;5016938;28;170352;-71
2023/09/26 01:45:39;;;;;;;12.07;5.70;;;14.80;99.90;;;;;;5043716;28;20063;-71
2023/09/26 01:48:06;;;;;;;12.07;6.50;;;14.80;99.90;;;;;;5013115;28;172391;-71
2023/09/26 01:50:34;;;;;;;11.68;5.20;;;14.70;99.90;;;;;;5065732;28;20060;-71
2023/09/26 01:53:01;;;;;;;11.82;5.80;;;14.70;99.90;;;;;;5024626;28;64004;-71
2023/09/26 01:55:27;;;;;;;12.50;6.25;;;14.60;99.90;;;;;;5027611;28;114047;-70
2023/09/26 01:57:53;;;;;;;13.77;7.38;;;14.60;99.90;;;;;;5031535;28;20045;-71
2023/09/26 02:00:19;;;;;;;12.55;6.70;;;14.60;99.90;;;;;;5042495;28;126625;-70
2023/09/26 02:02:48;;;;;;;10.40;5.85;;;14.50;99.90;;;;;;5031414;28;20064;-70
2023/09/26 02:05:17;;;;;;;14.10;6.22;;;14.40;99.90;;;;;;5044702;28;76503;-70
2023/09/26 02:07:46;;;;;;;13.05;5.18;;;14.40;99.90;;;;;;5031964;28;20049;-70
2023/09/26 02:10:14;;;;;;;10.55;6.15;;;14.50;99.90;;;;;;5034911;28;182269;-71
2023/09/26 02:12:48;;;;;;;12.85;6.38;;;14.40;99.90;;;;;;5036500;28;20048;-71
2023/09/26 02:15:15;;;;;;;13.00;5.72;;;14.40;99.90;;;;;;5028460;28;29755;-72
2023/09/26 02:17:42;;;;;;;10.43;5.25;;;14.40;99.90;;;;;;5040837;28;20056;-71
2023/09/26 02:20:14;;;;;;;13.75;6.53;;;14.40;99.90;;;;;;5015782;28;205326;-71
2023/09/26 02:22:49;;;;;;;14.30;6.63;;;14.40;99.90;;;;;;5033644;28;20057;-71
2023/09/26 02:25:16;;;;;;;12.18;6.43;;;14.40;99.90;;;;;;5041795;28;86076;-69
2023/09/26 02:27:43;;;;;;;14.27;6.32;;;14.50;99.90;;;;;;5029752;28;20052;-69
2023/09/26 02:30:11;;;;;;;12.07;6.38;;;14.50;99.90;;;;;;5051866;28;222126;-70
2023/09/26 02:32:38;;;;;;;14.68;6.90;;;14.50;99.90;;;;;;5044544;28;20045;-70
2023/09/26 02:35:09;;;;;;;13.52;7.05;;;14.50;99.90;;;;;;5007104;28;204174;-70
2023/09/26 02:37:35;;;;;;;13.38;7.30;;;14.50;99.90;;;;;;5054776;28;20072;-70
2023/09/26 02:40:05;;;;;;;15.15;7.32;;;14.50;99.90;;;;;;5008503;28;81025;-71
2023/09/26 02:42:33;;;;;;;14.27;7.00;;;14.50;99.90;;;;;;5061585;28;20067;-69
2023/09/26 02:44:59;;;;;;;15.35;7.40;;;14.50;99.90;;;;;;4992798;28;65590;-69
2023/09/26 02:47:25;;;;;;;12.25;7.35;;;14.50;99.90;;;;;;5059591;28;20063;-70
2023/09/26 02:49:51;;;;;;;14.23;7.15;;;14.50;99.90;;;;;;4995329;28;245338;-70
2023/09/26 02:52:18;;;;;;;13.65;7.53;;;14.40;99.90;;;;;;5040844;28;20057;-69
2023/09/26 02:54:44;;;;;;;14.02;8.40;;;14.50;99.90;;;;;;4994689;28;208430;-70
2023/09/26 02:57:14;;;;;;;11.88;7.32;;;14.40;99.90;;;;;;5055603;28;20045;-70
2023/09/26 02:59:40;;;;;;;13.00;7.10;;;14.40;99.90;;;;;;5012319;28;185395;-70
2023/09/26 03:02:06;;;;;;;13.70;7.80;;;14.30;99.90;;;;;;5055891;28;20056;-70
2023/09/26 03:04:33;;;;;;;13.68;8.00;;;14.30;99.90;;;;;;5025147;28;41258;-71
2023/09/26 03:06:59;;;;;;;14.35;7.30;;;14.20;99.90;;;;;;5058170;28;20057;-69
2023/09/26 03:09:25;;;;;;;13.43;8.20;;;14.20;99.90;;;;;;5003667;28;76112;-68
2023/09/26 03:11:51;;;;;;;14.20;8.00;;;14.10;99.90;;;;;;5054565;28;20407;-69
2023/09/26 03:14:19;;;;;;;14.50;9.10;;;14.10;99.90;;;;;;5020965;28;142874;-69
2023/09/26 03:16:45;;;;;;;12.93;8.07;;;14.00;99.90;;;;;;5061021;28;20048;-70
2023/09/26 03:19:12;;;;;;;15.35;9.63;;;14.00;99.90;;;;;;5007466;28;242177;-72
2023/09/26 03:21:38;;;;;;;14.30;8.70;;;13.90;99.90;;;;;;5054396;28;20067;-70
2023/09/26 03:24:04;;;;;;;12.70;7.78;;;13.90;99.90;;;;;;5012527;28;93355;-70
2023/09/26 03:26:30;;;;;;;13.20;7.13;;;13.80;99.90;;;;;;5061040;28;20053;-69
2023/09/26 03:28:56;;;;;;;17.65;9.25;;;13.80;99.90;;;;;;5020917;28;96668;-69
2023/09/26 03:31:22;;;;;;;14.75;8.18;;;13.80;99.90;;;;;;5060707;28;20056;-70
2023/09/26 03:33:50;;;;;;;15.40;9.35;;;13.70;99.90;;;;;;5030175;28;52029;-71
2023/09/26 03:36:17;;;;;;;17.30;9.35;;;13.70;99.90;;;;;;5066763;28;20513;-68
2023/09/26 03:38:43;;;;;;;16.58;10.25;;;13.60;99.90;;;;;;5016192;28;147861;-69
2023/09/26 03:41:09;;;;;;;16.80;8.98;;;13.60;99.90;;;;;;5033671;28;20048;-69
2023/09/26 03:43:36;;;;;;;18.83;10.45;;;13.60;99.90;;;;;;5022952;28;69709;-70
2023/09/26 03:46:03;;;;;;;16.02;10.13;;;13.60;99.90;;;;;;5058525;28;20052;-70
2023/09/26 03:48:30;;;;;;;14.52;8.32;;;13.50;99.90;;;;;;5013047;28;174119;-69
2023/09/26 03:51:13;;;;;;;14.45;9.13;;;13.50;99.90;;;;;;5059425;28;20052;-69
2023/09/26 03:53:40;;;;;;;17.42;10.85;;;13.40;99.90;;;;;;5009075;28;235153;-69
2023/09/26 03:56:07;;;;;;;16.25;9.10;;;13.40;99.90;;;;;;5064910;28;20048;-68
2023/09/26 03:58:34;;;;;;;14.95;9.50;;;13.40;99.90;;;;;;5019687;28;250671;-70
2023/09/26 04:01:27;;;;;;;16.40;10.07;;;13.30;99.90;;;;;;5058136;28;20044;-69
2023/09/26 04:03:53;;;;;;;13.15;9.02;;;13.30;99.90;;;;;;5012614;28;161257;-69
2023/09/26 04:06:19;;;;;;;16.40;10.25;;;13.20;99.90;;;;;;5061247;28;20048;-71
2023/09/26 04:08:45;;;;;;;15.00;10.27;;;13.20;99.90;;;;;;5007864;28;201821;-70
2023/09/26 04:11:18;;;;;;;14.25;9.30;;;13.10;99.90;;;;;;5064814;28;20060;-69
2023/09/26 04:13:45;;;;;;;15.77;8.65;;;13.10;99.90;;;;;;5015187;28;151466;-70
2023/09/26 04:16:11;;;;;;;16.85;9.82;;;13.10;99.90;;;;;;5065880;28;20064;-70
2023/09/26 04:18:37;;;;;;;15.18;9.98;;;13.10;99.90;;;;;;5023669;28;80469;-69
2023/09/26 04:21:06;;;;;;;14.90;9.32;;;13.00;99.90;;;;;;5051937;28;20059;-69
2023/09/26 04:23:32;;;;;;;14.98;9.82;;;13.00;99.90;;;;;;5014517;28;244330;-69
2023/09/26 04:25:58;;;;;;;14.73;9.63;;;13.00;99.90;;;;;;5047096;28;20059;-70
2023/09/26 04:28:24;;;;;;;15.68;9.38;;;13.00;99.90;;;;;;5013128;28;169505;-69
2023/09/26 04:30:50;;;;;;;14.93;10.30;;;12.90;99.90;;;;;;5054087;28;20059;-70
2023/09/26 04:33:16;;;;;;;17.48;10.38;;;13.00;99.90;;;;;;5017545;28;93579;-69
2023/09/26 04:35:43;;;;;;;15.50;10.38;;;12.90;99.90;;;;;;5055081;28;20067;-69
2023/09/26 04:38:09;;;;;;;14.00;8.70;;;12.90;99.90;;;;;;5014255;28;137884;-70
2023/09/26 04:40:36;;;;;;;15.55;8.32;;;12.90;99.90;;;;;;5059187;28;20040;-70
2023/09/26 04:43:04;;;;;;;15.65;9.98;;;12.80;99.90;;;;;;5018951;28;127491;-69
2023/09/26 04:45:31;;;;;;;14.65;8.77;;;12.80;99.90;;;;;;5072205;28;20056;-69
2023/09/26 04:48:01;;;;;;;16.67;10.75;;;12.80;99.90;;;;;;5018108;28;148803;-70
2023/09/26 04:50:29;;;;;;;14.80;9.43;;;12.80;99.90;;;;;;5054038;28;20419;-69
2023/09/26 04:52:56;;;;;;;16.80;10.10;;;12.80;99.90;;;;;;5001435;28;201122;-69
2023/09/26 04:55:23;;;;;;;16.38;10.23;;;12.80;99.90;;;;;;5052107;28;20059;-69
2023/09/26 04:57:49;;;;;;;14.85;10.10;;;12.80;99.90;;;;;;5014673;28;49941;-69
2023/09/26 05:00:19;;;;;;;15.00;10.38;;;12.80;99.90;;;;;;5066835;28;20033;-69
2023/09/26 05:02:51;;;;;;;14.45;9.65;;;12.80;99.90;;;;;;5013274;28;174818;-69
2023/09/26 05:05:17;;;;;;;16.63;10.75;;;12.70;99.90;;;;;;5054982;28;20067;-69
2023/09/26 05:07:48;;;;;;;16.20;10.75;;;12.70;99.90;;;;;;5021016;28;60153;-70
2023/09/26 05:10:14;;;;;;;;;;;12.70;99.90;;;;;;5023240;28;20059;-69
2023/09/26 05:12:41;;;;;;;17.05;10.63;;;12.70;99.90;;;;;;5037332;28;19928;-69
2023/09/26 05:15:12;;;;;;;15.73;10.77;;;12.70;99.90;;;;;;5025794;28;261121;-71
2023/09/26 05:17:40;;;;;;;17.92;11.63;;;12.70;99.90;;;;;;5045400;28;20419;-68
2023/09/26 05:20:10;;;;;;;16.10;11.27;;;12.70;99.90;;;;;;5020941;28;190288;-70
2023/09/26 05:22:41;;;;;;;15.80;10.98;;;12.70;99.90;;;;;;5053075;28;20526;-70
2023/09/26 05:25:07;;;;;;;16.65;11.40;;;12.70;99.90;;;;;;4981026;28;266123;-69
2023/09/26 05:27:34;;;;;;;16.42;11.95;;;12.70;99.90;;;;;;5058179;28;20068;-70
2023/09/26 05:30:00;;;;;;;16.23;10.77;;;12.70;99.90;;;;;;4997827;28;102479;-70
2023/09/26 05:32:26;;;;;;;14.57;10.25;;;12.70;99.90;;;;;;5043761;28;20056;-70
2023/09/26 05:34:52;;;;;;;16.92;10.55;;;12.70;99.90;;;;;;5018748;28;252111;-71
2023/09/26 05:37:18;;;;;;;17.77;11.93;;;12.70;99.90;;;;;;5060924;28;20053;-70
2023/09/26 05:39:44;;;;;;;16.35;10.77;;;12.70;99.90;;;;;;5019898;28;20055;-70
2023/09/26 05:42:11;;;;;;;15.68;10.77;;;12.80;99.90;;;;;;5061245;28;20061;-70
2023/09/26 05:44:37;;;;;;;20.48;12.15;;;12.80;99.90;;;;;;5011299;28;132123;-68
2023/09/26 05:47:04;;;;;;;19.20;12.32;;;12.80;99.90;;;;;;5055868;28;20548;-69
2023/09/26 05:49:30;;;;;;;16.50;11.65;;;12.80;99.90;;;;;;5012889;28;146105;-69
2023/09/26 05:51:56;;;;;;;17.30;11.82;;;12.80;99.90;;;;;;5057278;28;20542;-70
2023/09/26 05:54:23;;;;;;;17.38;12.00;;;12.80;99.90;;;;;;4999556;28;126958;-71
2023/09/26 05:56:49;;;;;;;16.20;11.63;;;12.90;99.90;;;;;;5060674;28;20049;-70
2023/09/26 05:59:15;;;;;;;14.10;10.25;;;12.90;99.90;;;;;;5018714;28;20041;-71
2023/09/26 06:01:41;;;;;;;19.05;11.63;;;12.90;99.90;;;;;;5056099;28;20419;-70
2023/09/26 06:04:08;;;;;;;15.32;10.77;;;12.90;99.90;;;;;;5028293;28;20061;-72
2023/09/26 06:06:34;;;;;;;16.98;12.13;;;13.00;99.90;;;;;;5042352;28;20075;-70
2023/09/26 06:09:00;;;;;;;15.55;10.88;;;13.00;99.90;;;;;;5006752;28;211392;-71
2023/09/26 06:11:26;;;;;;;16.73;11.00;;;13.00;99.90;;;;;;5062008;28;20589;-70
2023/09/26 06:13:55;;;;;;;15.52;10.63;;;13.10;99.90;;;;;;5015768;28;74377;-71
2023/09/26 06:16:22;;;;;;;15.00;10.75;;;13.10;99.90;;;;;;5059883;28;20065;-71
2023/09/26 06:18:48;;;;;;;16.63;10.60;;;13.20;99.90;;;;;;5010807;28;78131;-71
2023/09/26 06:21:14;;;;;;;16.50;10.82;;;13.30;99.90;;;;;;5052989;28;20063;-70
2023/09/26 06:23:41;;;;;;;16.00;11.35;;;13.30;99.90;;;;;;5012615;28;254505;-69
2023/09/26 06:26:07;;;;;;;14.70;10.80;;;13.30;99.90;;;;;;5046899;28;20056;-70
2023/09/26 06:28:34;;;;;;;13.80;9.13;;;13.40;99.90;;;;;;5013918;28;133533;-70
2023/09/26 06:31:07;;;;;;;21.20;10.95;;;13.50;99.90;;;;;;5062482;28;20056;-70
2023/09/26 06:33:36;;;;;;;15.35;10.65;;;13.60;99.90;;;;;;5013747;28;135387;-70
2023/09/26 06:36:20;;;;;;;12.88;9.32;;;13.60;99.90;;;;;;5059148;28;20063;-70
2023/09/26 06:38:46;;;;;;;16.77;9.60;;;13.70;99.90;;;;;;5008992;28;281813;-71
2023/09/26 06:41:13;;;;;;;14.80;9.65;;;13.70;99.90;;;;;;5049942;28;20461;-71
2023/09/26 06:43:39;;;;;;;15.93;10.85;;;13.80;99.90;;;;;;5016133;28;201359;-70
2023/09/26 06:46:08;;;;;;;19.98;9.90;;;13.90;99.90;;;;;;5065301;28;20052;-70
2023/09/26 06:48:35;;;;;;;16.67;9.82;;;14.00;99.90;;;;;;4996173;28;217320;-70
2023/09/26 06:51:02;;;;;;;16.92;10.00;;;14.10;99.90;;;;;;5059689;28;21591;-70
2023/09/26 06:53:29;;;;;;;16.08;9.88;;;14.20;99.90;;;;;;4999594;28;128832;-71
2023/09/26 06:56:00;;;;;;;17.17;9.35;;;14.30;99.90;;;;;;5055270;28;20068;-71
2023/09/26 06:58:26;;;;;;;15.13;9.10;;;14.40;99.90;;;;;;5008983;28;140963;-71
2023/09/26 07:00:52;;;;;;;14.82;9.48;;;14.60;99.90;;;;;;5058167;28;20052;-70
2023/09/26 07:03:18;;;;;;;13.27;9.20;;;14.60;99.90;;;;;;5010256;28;240241;-70
2023/09/26 07:05:44;;;;;;;15.98;9.32;;;14.70;99.90;;;;;;5056577;28;20049;-70
2023/09/26 07:08:12;;;;;;;13.88;8.82;;;14.90;99.90;;;;;;5017483;27;187125;-70
2023/09/26 07:10:39;;;;;;;18.98;8.95;;;14.90;99.90;;;;;;5069079;28;20057;-70
2023/09/26 07:13:05;;;;;;;15.73;9.27;;;15.10;99.90;;;;;;5013432;28;183119;-71
2023/09/26 07:15:32;;;;;;;15.50;8.95;;;15.30;99.90;;;;;;5057998;28;20602;-71
2023/09/26 07:17:59;;;;;;;16.88;8.55;;;15.40;99.90;;;;;;5008965;28;183175;-71
2023/09/26 07:20:25;;;;;;;14.18;8.30;;;15.50;99.90;;;;;;5044615;28;20044;-70
2023/09/26 07:22:51;;;;;;;14.18;8.52;;;15.70;99.90;;;;;;5009589;28;259340;-71
2023/09/26 07:25:17;;;;;;;13.73;8.55;;;15.80;99.90;;;;;;5056573;28;20040;-71
2023/09/26 07:27:43;;;;;;;13.55;7.95;;;15.90;99.90;;;;;;5012873;28;225400;-69
2023/09/26 07:30:10;;;;;;;14.43;8.13;;;16.00;99.90;;;;;;5077755;28;20826;-71
2023/09/26 07:32:36;;;;;;;19.48;8.15;;;16.10;99.90;;;;;;5057844;28;20052;-70
2023/09/26 07:35:03;;;;;;;15.20;8.23;;;16.10;99.90;;;;;;5019195;28;195360;-72
2023/09/26 07:37:30;;;;;;;15.30;7.82;;;16.20;99.90;;;;;;5054260;28;20060;-70
2023/09/26 07:39:57;;;;;;;13.68;7.70;;;16.30;99.90;;;;;;5000125;28;39387;-71
2023/09/26 07:42:23;;;;;;;13.50;7.10;;;16.40;99.90;;;;;;5062292;28;20060;-70
2023/09/26 07:44:49;;;;;;;13.45;8.05;;;16.50;99.90;;;;;;5015660;28;169549;-71
2023/09/26 07:47:15;;;;;;;14.48;7.95;;;16.60;99.90;;;;;;5053514;28;20040;-71
2023/09/26 07:49:42;;;;;;;13.30;7.53;;;16.70;99.90;;;;;;5018282;28;253530;-71
2023/09/26 07:52:08;;;;;;;12.75;7.85;;;16.90;99.90;;;;;;5059696;28;20053;-70
2023/09/26 07:54:34;;;;;;;15.90;7.93;;;17.00;99.90;;;;;;4990822;28;216604;-71
2023/09/26 07:57:00;;;;;;;14.77;7.75;;;17.10;99.90;;;;;;5059270;28;20531;-71
2023/09/26 07:59:27;;;;;;;13.50;7.30;;;17.30;99.90;;;;;;5015324;28;211891;-70
2023/09/26 08:01:53;;;;;;;13.25;7.20;;;17.30;99.90;;;;;;5061829;28;20056;-71
2023/09/26 08:04:19;;;;;;;14.02;7.50;;;17.40;99.90;;;;;;5016643;28;20056;-71
2023/09/26 08:06:46;;;;;;;13.93;7.43;;;17.40;99.90;;;;;;5055351;28;20064;-71
2023/09/26 08:09:12;;;;;;;13.77;7.65;;;17.50;99.90;;;;;;5008965;28;188215;-70
2023/09/26 08:11:40;;;;;;;12.82;7.85;;;17.60;99.90;;;;;;5059497;28;20061;-72
2023/09/26 08:14:07;;;;;;;14.45;7.88;;;17.60;99.90;;;;;;5008446;28;21179;-71
2023/09/26 08:16:33;;;;;;;16.13;7.50;;;17.60;99.90;;;;;;5057536;28;20049;-71
2023/09/26 08:18:59;;;;;;;14.02;7.70;;;17.70;99.90;;;;;;5014183;28;20052;-71
2023/09/26 08:21:26;;;;;;;15.32;7.55;;;17.80;99.90;;;;;;5055274;28;20048;-70
2023/09/26 08:23:54;;;;;;;15.85;7.95;;;17.80;99.90;;;;;;5014554;28;20053;-70
2023/09/26 08:26:20;;;;;;;17.17;7.97;;;17.90;99.90;;;;;;5059649;28;20060;-71
2023/09/26 08:28:46;;;;;;;15.85;7.32;;;17.90;99.90;;;;;;5016348;28;198432;-71
2023/09/26 08:31:15;;;;;;;18.35;7.55;;;18.10;99.90;;;;;;5053987;28;20056;-71
2023/09/26 08:33:43;;;;;;;15.57;7.47;;;18.10;99.90;;;;;;5022123;28;100618;-70
2023/09/26 08:36:17;;;;;;;15.27;7.22;;;18.10;99.90;;;;;;5068459;28;20439;-71
2023/09/26 08:38:44;;;;;;;14.10;7.18;;;18.20;99.90;;;;;;5024365;28;61260;-71
2023/09/26 08:41:11;;;;;;;13.13;7.45;;;18.30;99.90;;;;;;5064760;28;20052;-71
2023/09/26 08:43:37;;;;;;;17.95;7.50;;;18.40;99.90;;;;;;5005321;28;226838;-71
2023/09/26 08:46:05;;;;;;;14.55;7.05;;;18.50;99.90;;;;;;5051090;28;20534;-70
2023/09/26 08:48:32;;;;;;;17.33;7.20;;;18.70;99.90;;;;;;5009591;28;162291;-72
2023/09/26 08:50:59;;;;;;;16.48;6.63;;;18.80;99.90;;;;;;5050174;28;20056;-72
2023/09/26 08:53:25;;;;;;;16.25;8.20;;;18.80;99.90;;;;;;4994775;28;122215;-71
2023/09/26 08:55:52;;;;;;;13.20;6.90;;;18.80;99.90;;;;;;5060876;28;20048;-70
2023/09/26 08:58:20;;;;;;;14.82;7.70;;;18.70;99.90;;;;;;5013576;28;240067;-71
2023/09/26 09:00:47;;;;;;;16.05;6.97;;;18.70;99.90;;;;;;5062612;28;20509;-71
2023/09/26 09:03:13;;;;;;;15.45;7.85;;;18.80;99.90;;;;;;5017266;28;184239;-71
2023/09/26 09:05:40;;;;;;;17.38;7.90;;;19.20;99.90;;;;;;5057299;28;20052;-71
2023/09/26 09:08:17;;;;;;;14.43;6.75;;;19.60;99.90;;;;;;5017762;28;52044;-72
2023/09/26 09:10:51;;;;;;;14.15;6.93;;;20.00;99.90;;;;;;5046413;28;20047;-71
2023/09/26 09:13:30;;;;;;;14.77;6.20;;;20.40;99.90;;;;;;5018523;28;20515;-71
2023/09/26 09:16:18;;;;;;;16.20;6.40;;;20.80;99.90;;;;;;5064884;28;20049;-73
2023/09/26 09:18:50;;;;;;;13.77;5.70;;;21.30;99.90;;;;;;5012123;28;62573;-71
2023/09/26 09:21:27;;;;;;;12.00;5.90;;;22.10;99.90;;;;;;5057403;28;20068;-71
2023/09/26 09:23:55;;;;;;;13.88;5.60;;;23.10;99.90;;;;;;5021057;28;90827;-71
2023/09/26 09:26:23;;;;;;;12.60;5.38;;;23.60;99.90;;;;;;5052640;28;20533;-72
2023/09/26 09:29:19;;;;;;;14.95;5.25;;;24.10;99.00;;;;;;5014180;28;145137;-71
2023/09/26 09:31:48;;;;;;;20.00;6.07;;;23.40;96.00;;;;;;5057798;28;20518;-71
2023/09/26 09:34:19;;;;;;;13.45;5.20;;;22.70;98.80;;;;;;4998573;28;93101;-72
2023/09/26 09:36:45;;;;;;;11.52;5.63;;;22.40;99.10;;;;;;5057311;28;20139;-72
2023/09/26 09:39:12;;;;;;;14.93;5.60;;;22.50;99.00;;;;;;5006957;28;167809;-70
2023/09/26 09:41:38;;;;;;;13.63;5.18;;;22.20;98.20;;;;;;5059172;28;20059;-71
2023/09/26 09:44:05;;;;;;;13.38;5.30;;;22.20;98.80;;;;;;5011186;28;124593;-71
2023/09/26 09:46:40;;;;;;;13.38;5.03;;;22.60;98.50;;;;;;5054381;28;20060;-72
2023/09/26 09:49:11;;;;;;;13.07;5.00;;;23.00;98.30;;;;;;5002040;28;133834;-71
2023/09/26 09:51:50;;;;;;;12.02;5.20;;;23.40;98.20;;;;;;5038067;28;20052;-73
2023/09/26 09:54:22;;;;;;;12.07;4.95;;;23.30;97.90;;;;;;4974411;28;144150;-72
2023/09/26 09:56:52;;;;;;;14.25;4.97;;;23.20;97.60;;;;;;5056875;28;20045;-73
2023/09/26 09:59:37;;;;;;;13.07;4.70;;;23.40;97.60;;;;;;5013243;28;270119;-71
2023/09/26 10:02:23;;;;;;;12.23;5.10;;;23.90;97.00;;;;;;5058272;28;20048;-72
2023/09/26 10:04:55;;;;;;;12.73;5.03;;;24.10;96.50;;;;;;4683900;28;9088924;-72
2023/09/26 10:07:29;;;;;;;10.20;4.38;;;24.40;96.30;;;;;;5060765;28;20066;-73
2023/09/26 10:09:56;;;;;;;10.85;4.60;;;24.40;96.90;;;;;;5007701;28;185862;-71
2023/09/26 10:12:24;;;;;;;12.27;4.50;;;24.40;96.50;;;;;;5045757;28;20060;-72
2023/09/26 10:14:55;;;;;;;10.85;4.40;;;24.60;96.20;;;;;;5034196;28;115981;-72
2023/09/26 10:17:21;;;;;;;12.73;4.40;;;24.70;96.20;;;;;;5061950;28;20049;-71
2023/09/26 10:19:47;;;;;;;12.02;4.65;;;24.60;96.50;;;;;;5024561;28;229320;-72
2023/09/26 10:22:14;;;;;;;11.80;4.50;;;24.50;95.80;;;;;;5060325;28;20036;-71
2023/09/26 10:24:46;;;;;;;10.98;4.22;;;24.20;96.00;;;;;;5001996;28;21073;-71
2023/09/26 10:27:21;;;;;;;10.13;4.00;;;24.10;96.10;;;;;;5063124;28;20055;-71
2023/09/26 10:29:47;;;;;;;11.77;4.28;;;24.40;95.40;;;;;;5005749;28;185945;-71
2023/09/26 10:32:22;;;;;;;11.52;4.10;;;24.40;95.50;;;;;;5062903;28;20052;-71
2023/09/26 10:34:48;;;;;;;9.13;4.00;;;24.60;95.50;;;;;;5003669;28;174823;-70
2023/09/26 10:37:18;;;;;;;9.65;3.88;;;24.60;95.60;;;;;;5059590;28;20876;-72
2023/09/26 10:39:44;;;;;;;12.45;4.00;;;24.60;95.30;;;;;;5006314;28;57924;-72
2023/09/26 10:42:11;;;;;;;9.93;3.70;;;24.50;95.10;;;;;;5044244;28;20052;-72
2023/09/26 10:44:40;;;;;;;10.43;4.15;;;24.30;95.00;;;;;;5024682;28;26673;-71
2023/09/26 10:47:07;;;;;;;10.32;4.22;;;24.30;95.00;;;;;;5055054;28;20057;-71
2023/09/26 10:49:33;;;;;;;10.52;3.90;;;24.30;95.10;;;;;;5006955;28;252482;-71
2023/09/26 10:52:01;;;;;;;11.65;4.13;;;24.40;95.00;;;;;;5053337;28;20751;-72
2023/09/26 10:54:28;;;;;;;8.60;3.47;;;24.40;94.60;;;;;;4994296;28;191899;-72
2023/09/26 10:56:54;;;;;;;10.75;4.05;;;24.30;94.70;;;;;;5049079;28;20297;-71
2023/09/26 10:59:20;;;;;;;11.68;4.05;;;23.90;94.60;;;;;;5011347;28;147161;-72
2023/09/26 11:01:46;;;;;;;10.57;4.00;;;23.80;94.90;;;;;;5053821;28;20052;-73
2023/09/26 11:04:12;;;;;;;10.10;4.03;;;23.90;94.80;;;;;;5018231;28;204181;-72
2023/09/26 11:06:39;;;;;;;10.55;4.00;;;23.90;94.80;;;;;;5047760;28;20048;-71
2023/09/26 11:09:07;;;;;;;11.52;4.53;;;23.80;94.60;;;;;;5026690;28;27189;-71
2023/09/26 11:11:34;;;;;;;10.80;4.05;;;23.80;95.00;;;;;;5051838;28;20075;-72
2023/09/26 11:14:00;;;;;;;10.00;4.00;;;23.80;95.10;;;;;;5012892;28;159032;-71
2023/09/26 11:16:26;;;;;;;11.10;3.90;;;23.90;95.10;;;;;;5057694;28;20052;-71
2023/09/26 11:18:55;;;;;;;10.80;4.57;;;23.90;95.20;;;;;;5018481;28;31133;-71
2023/09/26 11:21:21;;;;;;;11.68;4.50;;;23.90;94.90;;;;;;5052049;28;20049;-72
2023/09/26 11:23:47;;;;;;;11.35;4.05;;;23.80;94.80;;;;;;5018587;28;135870;-72
2023/09/26 11:26:13;;;;;;;10.27;4.10;;;23.70;95.20;;;;;;5053988;28;22006;-71
2023/09/26 11:28:40;;;;;;;11.18;4.85;;;23.70;95.00;;;;;;5010459;28;44547;-70
2023/09/26 11:31:06;;;;;;;11.25;4.55;;;23.70;94.90;;;;;;5030428;28;20056;-71
2023/09/26 11:33:32;;;;;;;10.68;4.88;;;23.50;94.90;;;;;;5012866;28;62595;-71
2023/09/26 11:35:58;;;;;;;13.73;5.00;;;23.30;94.80;;;;;;5045188;28;20059;-70
2023/09/26 11:38:25;;;;;;;9.48;4.43;;;23.10;95.40;;;;;;5002225;28;211896;-72
2023/09/26 11:40:54;;;;;;;10.82;4.63;;;23.20;95.40;;;;;;5022686;28;20056;-72
2023/09/26 11:43:20;;;;;;;11.70;4.50;;;23.40;95.90;;;;;;5017076;28;75218;-70
2023/09/26 11:45:46;;;;;;;10.82;4.70;;;23.60;95.80;;;;;;5051503;28;20072;-71
2023/09/26 11:48:12;;;;;;;11.90;4.93;;;23.50;95.30;;;;;;5002551;28;193180;-74
2023/09/26 11:50:42;;;;;;;11.93;5.00;;;23.50;95.30;;;;;;5040327;28;20052;-73
2023/09/26 11:53:09;;;;;;;11.60;5.10;;;23.40;95.30;;;;;;5010133;28;148223;-71
2023/09/26 11:55:38;;;;;;;11.15;5.22;;;23.20;95.60;;;;;;5060677;28;20056;-70
2023/09/26 11:58:04;;;;;;;11.63;4.97;;;23.10;95.80;;;;;;5014995;28;215386;-71
2023/09/26 12:00:31;;;;;;;11.75;4.80;;;23.30;96.10;;;;;;5060301;28;20064;-70
2023/09/26 12:02:57;;;;;;;10.05;4.90;;;23.50;96.00;;;;;;5017398;28;60748;-70
2023/09/26 12:05:23;;;;;;;11.38;4.82;;;23.90;95.60;;;;;;5044231;28;21907;-71
2023/09/26 12:07:50;;;;;;;11.32;4.95;;;23.80;95.70;;;;;;5019002;28;246526;-70
2023/09/26 12:10:17;;;;;;;11.38;4.90;;;24.10;95.80;;;;;;5034060;28;20064;-71
2023/09/26 12:12:44;;;;;;;10.00;4.82;;;24.10;96.00;;;;;;5018276;28;246882;-72
2023/09/26 12:15:27;;;;;;;10.65;5.00;;;24.30;95.80;;;;;;5038807;28;20055;-71
2023/09/26 12:17:56;;;;;;;12.90;5.38;;;24.40;95.40;;;;;;5018788;28;93629;-72
2023/09/26 12:20:24;;;;;;;9.98;5.18;;;24.50;95.50;;;;;;5049508;28;20049;-71
2023/09/26 12:22:55;;;;;;;13.10;5.65;;;24.50;95.40;;;;;;5020497;28;27776;-71
2023/09/26 12:25:23;;;;;;;10.65;5.50;;;24.70;94.80;;;;;;5069180;28;20106;-73
2023/09/26 12:27:50;;;;;;;10.55;5.15;;;25.00;94.90;;;;;;5019046;28;21044;-72
2023/09/26 12:30:16;;;;;;;13.63;5.28;;;25.50;95.30;;;;;;5065932;28;20059;-72
2023/09/26 12:32:43;;;;;;;11.50;5.18;;;26.00;94.80;;;;;;5021082;28;256037;-72
2023/09/26 12:35:10;;;;;;;11.00;4.75;;;26.30;94.80;;;;;;5041048;28;20040;-72